sensor_id;sensor_type;location;lat;lon;timestamp;P1;durP1;ratioP1;P2;durP2;ratioP2
60038;SDS011;45916;52.734;6.544;2022-11-27T00:00:42;19.27;;;11.73;;
60038;SDS011;45916;52.734;6.544;2022-11-27T00:03:09;23.17;;;13.10;;
60038;SDS011;45916;52.734;6.544;2022-11-27T00:05:34;22.55;;;12.02;;
60038;SDS011;45916;52.734;6.544;2022-11-27T00:08:00;19.63;;;12.23;;
60038;SDS011;45916;52.734;6.544;2022-11-27T00:10:26;20.13;;;12.60;;
60038;SDS011;45916;52.734;6.544;2022-11-27T00:12:51;19.17;;;13.10;;
60038;SDS011;45916;52.734;6.544;2022-11-27T00:15:17;17.42;;;11.90;;
60038;SDS011;45916;52.734;6.544;2022-11-27T00:17:43;21.42;;;12.13;;
60038;SDS011;45916;52.734;6.544;2022-11-27T00:20:09;22.15;;;13.40;;
60038;SDS011;45916;52.734;6.544;2022-11-27T00:22:35;19.13;;;13.27;;
60038;SDS011;45916;52.734;6.544;2022-11-27T00:25:01;21.00;;;12.15;;
60038;SDS011;45916;52.734;6.544;2022-11-27T00:27:26;20.30;;;12.65;;
60038;SDS011;45916;52.734;6.544;2022-11-27T00:29:52;19.35;;;12.13;;
60038;SDS011;45916;52.734;6.544;2022-11-27T00:32:18;24.05;;;13.45;;
60038;SDS011;45916;52.734;6.544;2022-11-27T00:34:43;24.33;;;13.35;;
60038;SDS011;45916;52.734;6.544;2022-11-27T00:37:09;19.85;;;12.45;;
60038;SDS011;45916;52.734;6.544;2022-11-27T00:39:36;20.30;;;11.77;;
60038;SDS011;45916;52.734;6.544;2022-11-27T00:42:01;20.52;;;13.00;;
60038;SDS011;45916;52.734;6.544;2022-11-27T00:44:27;24.65;;;13.60;;
60038;SDS011;45916;52.734;6.544;2022-11-27T00:46:53;21.05;;;13.30;;
60038;SDS011;45916;52.734;6.544;2022-11-27T00:49:18;21.58;;;12.65;;
60038;SDS011;45916;52.734;6.544;2022-11-27T00:51:45;24.75;;;13.80;;
60038;SDS011;45916;52.734;6.544;2022-11-27T00:54:11;21.33;;;11.45;;
60038;SDS011;45916;52.734;6.544;2022-11-27T00:56:37;24.67;;;13.05;;
60038;SDS011;45916;52.734;6.544;2022-11-27T00:59:04;20.60;;;12.82;;
60038;SDS011;45916;52.734;6.544;2022-11-27T01:01:32;20.73;;;12.18;;
60038;SDS011;45916;52.734;6.544;2022-11-27T01:04:00;16.67;;;11.93;;
60038;SDS011;45916;52.734;6.544;2022-11-27T01:06:27;17.88;;;11.75;;
60038;SDS011;45916;52.734;6.544;2022-11-27T01:08:54;20.00;;;12.23;;
60038;SDS011;45916;52.734;6.544;2022-11-27T01:11:21;19.05;;;12.73;;
60038;SDS011;45916;52.734;6.544;2022-11-27T01:13:51;17.88;;;11.65;;
60038;SDS011;45916;52.734;6.544;2022-11-27T01:16:20;24.13;;;13.18;;
60038;SDS011;45916;52.734;6.544;2022-11-27T01:18:48;19.75;;;11.82;;
60038;SDS011;45916;52.734;6.544;2022-11-27T01:21:15;22.65;;;13.35;;
60038;SDS011;45916;52.734;6.544;2022-11-27T01:23:43;24.45;;;12.45;;
60038;SDS011;45916;52.734;6.544;2022-11-27T01:26:10;19.00;;;11.48;;
60038;SDS011;45916;52.734;6.544;2022-11-27T01:28:36;22.05;;;11.15;;
60038;SDS011;45916;52.734;6.544;2022-11-27T01:31:04;17.80;;;12.95;;
60038;SDS011;45916;52.734;6.544;2022-11-27T01:33:35;20.13;;;12.48;;
60038;SDS011;45916;52.734;6.544;2022-11-27T01:36:02;16.50;;;11.93;;
60038;SDS011;45916;52.734;6.544;2022-11-27T01:38:29;19.55;;;12.25;;
60038;SDS011;45916;52.734;6.544;2022-11-27T01:40:59;19.55;;;13.00;;
60038;SDS011;45916;52.734;6.544;2022-11-27T01:43:41;15.20;;;11.55;;
60038;SDS011;45916;52.734;6.544;2022-11-27T01:48:58;20.85;;;12.48;;
60038;SDS011;45916;52.734;6.544;2022-11-27T01:51:27;18.15;;;12.57;;
60038;SDS011;45916;52.734;6.544;2022-11-27T01:53:54;22.40;;;12.60;;
60038;SDS011;45916;52.734;6.544;2022-11-27T01:56:21;19.90;;;11.77;;
60038;SDS011;45916;52.734;6.544;2022-11-27T01:58:48;18.08;;;12.50;;
60038;SDS011;45916;52.734;6.544;2022-11-27T02:01:15;20.52;;;12.77;;
60038;SDS011;45916;52.734;6.544;2022-11-27T02:03:40;20.33;;;12.38;;
60038;SDS011;45916;52.734;6.544;2022-11-27T02:06:08;17.02;;;12.00;;
60038;SDS011;45916;52.734;6.544;2022-11-27T02:08:37;21.55;;;13.18;;
60038;SDS011;45916;52.734;6.544;2022-11-27T02:11:27;21.25;;;13.07;;
60038;SDS011;45916;52.734;6.544;2022-11-27T02:34:21;19.92;;;11.88;;
60038;SDS011;45916;52.734;6.544;2022-11-27T02:37:04;19.20;;;11.63;;
60038;SDS011;45916;52.734;6.544;2022-11-27T02:39:44;17.05;;;11.52;;
60038;SDS011;45916;52.734;6.544;2022-11-27T02:42:21;17.60;;;11.93;;
60038;SDS011;45916;52.734;6.544;2022-11-27T02:44:49;17.60;;;10.52;;
60038;SDS011;45916;52.734;6.544;2022-11-27T02:47:23;17.90;;;10.60;;
60038;SDS011;45916;52.734;6.544;2022-11-27T02:49:50;18.17;;;9.90;;
60038;SDS011;45916;52.734;6.544;2022-11-27T02:52:20;18.85;;;10.27;;
60038;SDS011;45916;52.734;6.544;2022-11-27T02:54:48;18.05;;;11.10;;
60038;SDS011;45916;52.734;6.544;2022-11-27T02:57:17;21.33;;;11.43;;
60038;SDS011;45916;52.734;6.544;2022-11-27T02:59:44;17.25;;;10.43;;
60038;SDS011;45916;52.734;6.544;2022-11-27T03:02:12;18.73;;;11.05;;
60038;SDS011;45916;52.734;6.544;2022-11-27T03:04:49;22.05;;;11.00;;
60038;SDS011;45916;52.734;6.544;2022-11-27T03:07:22;22.25;;;11.05;;
60038;SDS011;45916;52.734;6.544;2022-11-27T03:09:56;21.80;;;11.93;;
60038;SDS011;45916;52.734;6.544;2022-11-27T03:12:27;22.23;;;11.18;;
60038;SDS011;45916;52.734;6.544;2022-11-27T03:14:53;19.63;;;9.55;;
60038;SDS011;45916;52.734;6.544;2022-11-27T03:20:12;22.67;;;10.88;;
60038;SDS011;45916;52.734;6.544;2022-11-27T03:22:51;21.17;;;10.75;;
60038;SDS011;45916;52.734;6.544;2022-11-27T03:25:18;18.63;;;10.68;;
60038;SDS011;45916;52.734;6.544;2022-11-27T03:28:03;15.80;;;9.15;;
60038;SDS011;45916;52.734;6.544;2022-11-27T03:30:32;20.25;;;10.20;;
60038;SDS011;45916;52.734;6.544;2022-11-27T03:32:57;18.50;;;9.40;;
60038;SDS011;45916;52.734;6.544;2022-11-27T03:35:25;15.00;;;9.60;;
60038;SDS011;45916;52.734;6.544;2022-11-27T03:37:51;18.17;;;9.90;;
60038;SDS011;45916;52.734;6.544;2022-11-27T03:40:18;15.48;;;9.35;;
60038;SDS011;45916;52.734;6.544;2022-11-27T03:42:50;19.00;;;10.50;;
60038;SDS011;45916;52.734;6.544;2022-11-27T03:45:26;16.77;;;9.75;;
60038;SDS011;45916;52.734;6.544;2022-11-27T03:59:03;14.75;;;9.48;;
60038;SDS011;45916;52.734;6.544;2022-11-27T04:01:38;14.70;;;8.90;;
60038;SDS011;45916;52.734;6.544;2022-11-27T04:04:05;18.80;;;9.57;;
60038;SDS011;45916;52.734;6.544;2022-11-27T04:06:30;14.60;;;8.30;;
60038;SDS011;45916;52.734;6.544;2022-11-27T04:08:56;16.42;;;8.73;;
60038;SDS011;45916;52.734;6.544;2022-11-27T04:11:22;17.42;;;8.13;;
60038;SDS011;45916;52.734;6.544;2022-11-27T04:13:47;18.67;;;8.20;;
60038;SDS011;45916;52.734;6.544;2022-11-27T04:16:13;19.73;;;8.13;;
60038;SDS011;45916;52.734;6.544;2022-11-27T04:18:39;14.57;;;8.55;;
60038;SDS011;45916;52.734;6.544;2022-11-27T04:21:04;11.20;;;7.10;;
60038;SDS011;45916;52.734;6.544;2022-11-27T04:23:30;15.82;;;8.90;;
60038;SDS011;45916;52.734;6.544;2022-11-27T04:25:56;16.40;;;9.15;;
60038;SDS011;45916;52.734;6.544;2022-11-27T04:28:21;17.27;;;7.63;;
60038;SDS011;45916;52.734;6.544;2022-11-27T04:30:51;19.13;;;8.85;;
60038;SDS011;45916;52.734;6.544;2022-11-27T04:33:18;14.35;;;8.07;;
60038;SDS011;45916;52.734;6.544;2022-11-27T04:35:44;20.17;;;7.90;;
60038;SDS011;45916;52.734;6.544;2022-11-27T04:38:10;13.98;;;8.15;;
60038;SDS011;45916;52.734;6.544;2022-11-27T04:40:36;14.57;;;7.95;;
60038;SDS011;45916;52.734;6.544;2022-11-27T04:43:02;16.90;;;7.70;;
60038;SDS011;45916;52.734;6.544;2022-11-27T04:45:28;14.82;;;7.50;;
60038;SDS011;45916;52.734;6.544;2022-11-27T04:47:53;12.15;;;6.45;;
60038;SDS011;45916;52.734;6.544;2022-11-27T04:50:19;14.02;;;7.63;;
60038;SDS011;45916;52.734;6.544;2022-11-27T04:52:45;13.70;;;7.85;;
60038;SDS011;45916;52.734;6.544;2022-11-27T04:55:10;13.77;;;7.55;;
60038;SDS011;45916;52.734;6.544;2022-11-27T04:57:36;14.57;;;7.03;;
60038;SDS011;45916;52.734;6.544;2022-11-27T05:00:02;13.80;;;7.45;;
60038;SDS011;45916;52.734;6.544;2022-11-27T05:02:28;14.40;;;7.18;;
60038;SDS011;45916;52.734;6.544;2022-11-27T05:04:54;16.55;;;8.00;;
60038;SDS011;45916;52.734;6.544;2022-11-27T05:07:20;16.08;;;7.55;;
60038;SDS011;45916;52.734;6.544;2022-11-27T05:09:46;11.85;;;6.75;;
60038;SDS011;45916;52.734;6.544;2022-11-27T05:12:11;13.02;;;6.90;;
60038;SDS011;45916;52.734;6.544;2022-11-27T05:14:37;11.20;;;7.50;;
60038;SDS011;45916;52.734;6.544;2022-11-27T05:17:02;15.35;;;7.82;;
60038;SDS011;45916;52.734;6.544;2022-11-27T05:19:29;12.50;;;7.72;;
60038;SDS011;45916;52.734;6.544;2022-11-27T05:21:55;12.82;;;6.93;;
60038;SDS011;45916;52.734;6.544;2022-11-27T05:24:23;12.07;;;6.47;;
60038;SDS011;45916;52.734;6.544;2022-11-27T05:26:51;17.42;;;8.70;;
60038;SDS011;45916;52.734;6.544;2022-11-27T05:29:17;15.05;;;7.20;;
60038;SDS011;45916;52.734;6.544;2022-11-27T05:31:44;12.90;;;6.78;;
60038;SDS011;45916;52.734;6.544;2022-11-27T05:34:10;13.32;;;6.97;;
60038;SDS011;45916;52.734;6.544;2022-11-27T05:36:36;12.00;;;7.35;;
60038;SDS011;45916;52.734;6.544;2022-11-27T05:39:02;13.68;;;7.55;;
60038;SDS011;45916;52.734;6.544;2022-11-27T05:41:33;12.75;;;7.45;;
60038;SDS011;45916;52.734;6.544;2022-11-27T05:44:00;12.97;;;7.50;;
60038;SDS011;45916;52.734;6.544;2022-11-27T05:46:27;13.57;;;6.55;;
60038;SDS011;45916;52.734;6.544;2022-11-27T05:48:52;12.68;;;6.90;;
60038;SDS011;45916;52.734;6.544;2022-11-27T05:51:18;13.80;;;6.75;;
60038;SDS011;45916;52.734;6.544;2022-11-27T05:53:44;15.57;;;6.97;;
60038;SDS011;45916;52.734;6.544;2022-11-27T05:56:11;10.93;;;7.50;;
60038;SDS011;45916;52.734;6.544;2022-11-27T05:58:39;13.65;;;6.05;;
60038;SDS011;45916;52.734;6.544;2022-11-27T06:01:06;15.63;;;7.82;;
60038;SDS011;45916;52.734;6.544;2022-11-27T06:03:33;10.63;;;6.38;;
60038;SDS011;45916;52.734;6.544;2022-11-27T06:06:09;13.73;;;7.10;;
60038;SDS011;45916;52.734;6.544;2022-11-27T06:08:38;12.75;;;6.72;;
60038;SDS011;45916;52.734;6.544;2022-11-27T06:11:05;13.35;;;8.18;;
60038;SDS011;45916;52.734;6.544;2022-11-27T06:13:35;14.57;;;6.82;;
60038;SDS011;45916;52.734;6.544;2022-11-27T06:16:09;14.27;;;7.65;;
60038;SDS011;45916;52.734;6.544;2022-11-27T06:18:40;13.65;;;6.97;;
60038;SDS011;45916;52.734;6.544;2022-11-27T06:21:08;13.02;;;7.22;;
60038;SDS011;45916;52.734;6.544;2022-11-27T06:26:15;13.18;;;7.40;;
60038;SDS011;45916;52.734;6.544;2022-11-27T06:28:43;15.70;;;8.25;;
60038;SDS011;45916;52.734;6.544;2022-11-27T06:31:10;14.32;;;7.65;;
60038;SDS011;45916;52.734;6.544;2022-11-27T06:33:39;15.63;;;7.30;;
60038;SDS011;45916;52.734;6.544;2022-11-27T06:36:05;12.07;;;6.82;;
60038;SDS011;45916;52.734;6.544;2022-11-27T06:38:31;13.18;;;7.55;;
60038;SDS011;45916;52.734;6.544;2022-11-27T06:41:02;13.13;;;7.30;;
60038;SDS011;45916;52.734;6.544;2022-11-27T06:43:29;13.25;;;7.55;;
60038;SDS011;45916;52.734;6.544;2022-11-27T06:45:56;14.93;;;8.30;;
60038;SDS011;45916;52.734;6.544;2022-11-27T06:48:22;16.25;;;7.90;;
60038;SDS011;45916;52.734;6.544;2022-11-27T06:50:48;13.25;;;8.40;;
60038;SDS011;45916;52.734;6.544;2022-11-27T06:53:14;13.98;;;7.95;;
60038;SDS011;45916;52.734;6.544;2022-11-27T06:55:40;17.77;;;8.60;;
60038;SDS011;45916;52.734;6.544;2022-11-27T06:58:05;13.55;;;7.72;;
60038;SDS011;45916;52.734;6.544;2022-11-27T07:00:31;14.70;;;8.43;;
60038;SDS011;45916;52.734;6.544;2022-11-27T07:02:57;14.23;;;8.27;;
60038;SDS011;45916;52.734;6.544;2022-11-27T07:05:22;12.85;;;7.90;;
60038;SDS011;45916;52.734;6.544;2022-11-27T07:07:48;15.25;;;8.68;;
60038;SDS011;45916;52.734;6.544;2022-11-27T07:10:14;14.07;;;8.60;;
60038;SDS011;45916;52.734;6.544;2022-11-27T07:12:40;13.77;;;7.47;;
60038;SDS011;45916;52.734;6.544;2022-11-27T07:15:06;16.13;;;8.18;;
60038;SDS011;45916;52.734;6.544;2022-11-27T07:17:32;14.23;;;7.68;;
60038;SDS011;45916;52.734;6.544;2022-11-27T07:19:58;14.57;;;8.18;;
60038;SDS011;45916;52.734;6.544;2022-11-27T07:22:24;15.77;;;8.35;;
60038;SDS011;45916;52.734;6.544;2022-11-27T07:24:50;12.68;;;8.73;;
60038;SDS011;45916;52.734;6.544;2022-11-27T07:27:15;15.55;;;8.07;;
60038;SDS011;45916;52.734;6.544;2022-11-27T07:29:41;14.98;;;8.27;;
60038;SDS011;45916;52.734;6.544;2022-11-27T07:32:06;13.82;;;8.52;;
60038;SDS011;45916;52.734;6.544;2022-11-27T07:34:32;16.15;;;9.25;;
60038;SDS011;45916;52.734;6.544;2022-11-27T07:36:58;14.48;;;9.05;;
60038;SDS011;45916;52.734;6.544;2022-11-27T07:39:23;16.95;;;9.02;;
60038;SDS011;45916;52.734;6.544;2022-11-27T07:41:49;15.38;;;9.07;;
60038;SDS011;45916;52.734;6.544;2022-11-27T07:44:15;16.67;;;8.93;;
60038;SDS011;45916;52.734;6.544;2022-11-27T07:46:40;13.80;;;9.85;;
60038;SDS011;45916;52.734;6.544;2022-11-27T07:49:06;17.67;;;10.13;;
60038;SDS011;45916;52.734;6.544;2022-11-27T07:51:32;14.77;;;9.68;;
60038;SDS011;45916;52.734;6.544;2022-11-27T07:53:58;15.00;;;9.13;;
60038;SDS011;45916;52.734;6.544;2022-11-27T07:56:24;15.02;;;9.23;;
60038;SDS011;45916;52.734;6.544;2022-11-27T07:58:49;16.42;;;9.50;;
60038;SDS011;45916;52.734;6.544;2022-11-27T08:01:16;14.02;;;9.38;;
60038;SDS011;45916;52.734;6.544;2022-11-27T08:03:43;13.77;;;9.80;;
60038;SDS011;45916;52.734;6.544;2022-11-27T08:06:12;17.35;;;10.32;;
60038;SDS011;45916;52.734;6.544;2022-11-27T08:08:40;14.15;;;8.65;;
60038;SDS011;45916;52.734;6.544;2022-11-27T08:13:44;15.82;;;10.20;;
60038;SDS011;45916;52.734;6.544;2022-11-27T08:16:09;15.43;;;9.73;;
60038;SDS011;45916;52.734;6.544;2022-11-27T08:18:35;17.10;;;9.80;;
60038;SDS011;45916;52.734;6.544;2022-11-27T08:21:01;17.23;;;9.38;;
60038;SDS011;45916;52.734;6.544;2022-11-27T08:23:26;19.67;;;10.15;;
60038;SDS011;45916;52.734;6.544;2022-11-27T08:25:52;16.58;;;10.52;;
60038;SDS011;45916;52.734;6.544;2022-11-27T08:28:17;15.60;;;9.88;;
60038;SDS011;45916;52.734;6.544;2022-11-27T08:30:43;16.17;;;9.50;;
60038;SDS011;45916;52.734;6.544;2022-11-27T08:33:11;16.80;;;9.85;;
60038;SDS011;45916;52.734;6.544;2022-11-27T08:35:37;17.35;;;10.43;;
60038;SDS011;45916;52.734;6.544;2022-11-27T08:38:02;17.17;;;9.88;;
60038;SDS011;45916;52.734;6.544;2022-11-27T08:40:28;17.52;;;10.18;;
60038;SDS011;45916;52.734;6.544;2022-11-27T08:42:54;18.73;;;10.38;;
60038;SDS011;45916;52.734;6.544;2022-11-27T08:45:22;20.15;;;10.80;;
60038;SDS011;45916;52.734;6.544;2022-11-27T08:47:48;16.85;;;11.13;;
60038;SDS011;45916;52.734;6.544;2022-11-27T08:50:14;18.10;;;10.73;;
60038;SDS011;45916;52.734;6.544;2022-11-27T08:52:39;16.52;;;10.07;;
60038;SDS011;45916;52.734;6.544;2022-11-27T08:55:05;18.35;;;12.25;;
60038;SDS011;45916;52.734;6.544;2022-11-27T08:57:31;19.58;;;11.25;;
60038;SDS011;45916;52.734;6.544;2022-11-27T08:59:57;17.50;;;11.63;;
60038;SDS011;45916;52.734;6.544;2022-11-27T09:02:22;19.83;;;11.73;;
60038;SDS011;45916;52.734;6.544;2022-11-27T09:04:48;19.38;;;11.00;;
60038;SDS011;45916;52.734;6.544;2022-11-27T09:07:14;17.88;;;11.07;;
60038;SDS011;45916;52.734;6.544;2022-11-27T09:09:40;19.42;;;11.27;;
60038;SDS011;45916;52.734;6.544;2022-11-27T09:12:09;20.15;;;11.27;;
60038;SDS011;45916;52.734;6.544;2022-11-27T09:14:34;17.23;;;12.02;;
60038;SDS011;45916;52.734;6.544;2022-11-27T09:17:00;20.85;;;11.93;;
60038;SDS011;45916;52.734;6.544;2022-11-27T09:19:26;20.90;;;11.68;;
60038;SDS011;45916;52.734;6.544;2022-11-27T09:21:51;20.42;;;11.50;;
60038;SDS011;45916;52.734;6.544;2022-11-27T09:24:17;17.60;;;11.35;;
60038;SDS011;45916;52.734;6.544;2022-11-27T09:26:43;20.90;;;13.07;;
60038;SDS011;45916;52.734;6.544;2022-11-27T09:29:09;17.48;;;11.48;;
60038;SDS011;45916;52.734;6.544;2022-11-27T09:31:34;18.95;;;10.93;;
60038;SDS011;45916;52.734;6.544;2022-11-27T09:34:00;21.23;;;12.20;;
60038;SDS011;45916;52.734;6.544;2022-11-27T09:36:26;20.23;;;12.35;;
60038;SDS011;45916;52.734;6.544;2022-11-27T09:38:52;19.23;;;11.55;;
60038;SDS011;45916;52.734;6.544;2022-11-27T09:44:06;17.60;;;12.38;;
60038;SDS011;45916;52.734;6.544;2022-11-27T09:46:50;19.77;;;11.40;;
60038;SDS011;45916;52.734;6.544;2022-11-27T09:49:24;20.30;;;12.00;;
60038;SDS011;45916;52.734;6.544;2022-11-27T09:54:43;18.85;;;11.57;;
60038;SDS011;45916;52.734;6.544;2022-11-27T09:57:23;19.75;;;11.60;;
60038;SDS011;45916;52.734;6.544;2022-11-27T10:00:00;22.02;;;12.32;;
60038;SDS011;45916;52.734;6.544;2022-11-27T10:02:30;22.23;;;12.18;;
60038;SDS011;45916;52.734;6.544;2022-11-27T10:04:57;21.63;;;12.75;;
60038;SDS011;45916;52.734;6.544;2022-11-27T10:16:03;21.67;;;12.05;;
60038;SDS011;45916;52.734;6.544;2022-11-27T10:18:45;19.67;;;12.25;;
60038;SDS011;45916;52.734;6.544;2022-11-27T10:32:12;20.35;;;11.65;;
60038;SDS011;45916;52.734;6.544;2022-11-27T10:35:15;20.00;;;11.13;;
60038;SDS011;45916;52.734;6.544;2022-11-27T10:37:38;18.08;;;11.45;;
60038;SDS011;45916;52.734;6.544;2022-11-27T10:40:28;20.20;;;12.07;;
60038;SDS011;45916;52.734;6.544;2022-11-27T10:48:35;16.80;;;10.63;;
60038;SDS011;45916;52.734;6.544;2022-11-27T10:51:00;17.92;;;11.73;;
60038;SDS011;45916;52.734;6.544;2022-11-27T10:53:33;19.38;;;12.68;;
60038;SDS011;45916;52.734;6.544;2022-11-27T10:56:04;17.20;;;11.25;;
60038;SDS011;45916;52.734;6.544;2022-11-27T10:58:55;20.10;;;12.02;;
60038;SDS011;45916;52.734;6.544;2022-11-27T11:01:27;16.67;;;10.55;;
60038;SDS011;45916;52.734;6.544;2022-11-27T11:04:05;20.23;;;11.40;;
60038;SDS011;45916;52.734;6.544;2022-11-27T11:06:31;17.85;;;11.02;;
60038;SDS011;45916;52.734;6.544;2022-11-27T11:09:05;20.55;;;11.48;;
60038;SDS011;45916;52.734;6.544;2022-11-27T11:11:37;21.67;;;11.35;;
60038;SDS011;45916;52.734;6.544;2022-11-27T11:14:03;19.50;;;11.57;;
60038;SDS011;45916;52.734;6.544;2022-11-27T11:16:44;18.15;;;11.15;;
60038;SDS011;45916;52.734;6.544;2022-11-27T11:21:57;18.65;;;11.75;;
60038;SDS011;45916;52.734;6.544;2022-11-27T11:24:27;15.63;;;10.38;;
60038;SDS011;45916;52.734;6.544;2022-11-27T11:26:58;15.93;;;11.43;;
60038;SDS011;45916;52.734;6.544;2022-11-27T11:29:41;14.27;;;11.27;;
60038;SDS011;45916;52.734;6.544;2022-11-27T11:34:46;15.45;;;10.88;;
60038;SDS011;45916;52.734;6.544;2022-11-27T11:37:17;16.80;;;12.15;;
60038;SDS011;45916;52.734;6.544;2022-11-27T11:39:54;17.85;;;11.77;;
60038;SDS011;45916;52.734;6.544;2022-11-27T11:42:21;17.25;;;10.68;;
60038;SDS011;45916;52.734;6.544;2022-11-27T11:44:49;18.27;;;11.40;;
60038;SDS011;45916;52.734;6.544;2022-11-27T11:47:18;17.55;;;11.65;;
60038;SDS011;45916;52.734;6.544;2022-11-27T11:49:47;15.95;;;10.27;;
60038;SDS011;45916;52.734;6.544;2022-11-27T11:55:12;18.55;;;11.00;;
60038;SDS011;45916;52.734;6.544;2022-11-27T11:58:06;19.08;;;11.38;;
60038;SDS011;45916;52.734;6.544;2022-11-27T12:01:04;15.98;;;10.80;;
60038;SDS011;45916;52.734;6.544;2022-11-27T12:04:00;14.35;;;9.90;;
60038;SDS011;45916;52.734;6.544;2022-11-27T12:09:41;18.15;;;10.95;;
60038;SDS011;45916;52.734;6.544;2022-11-27T12:12:41;18.80;;;12.15;;
60038;SDS011;45916;52.734;6.544;2022-11-27T12:15:43;15.73;;;10.38;;
60038;SDS011;45916;52.734;6.544;2022-11-27T12:18:21;15.63;;;10.93;;
60038;SDS011;45916;52.734;6.544;2022-11-27T12:21:11;16.25;;;11.90;;
60038;SDS011;45916;52.734;6.544;2022-11-27T12:34:24;14.38;;;9.65;;
60038;SDS011;45916;52.734;6.544;2022-11-27T12:45:50;17.05;;;10.20;;
60038;SDS011;45916;52.734;6.544;2022-11-27T12:50:57;16.95;;;11.75;;
60038;SDS011;45916;52.734;6.544;2022-11-27T12:54:00;15.70;;;10.00;;
60038;SDS011;45916;52.734;6.544;2022-11-27T13:07:27;15.63;;;10.93;;
60038;SDS011;45916;52.734;6.544;2022-11-27T13:13:05;14.98;;;10.38;;
60038;SDS011;45916;52.734;6.544;2022-11-27T13:16:10;17.30;;;11.35;;
60038;SDS011;45916;52.734;6.544;2022-11-27T13:18:44;16.67;;;10.15;;
60038;SDS011;45916;52.734;6.544;2022-11-27T13:21:17;16.20;;;11.07;;
60038;SDS011;45916;52.734;6.544;2022-11-27T13:23:49;15.45;;;10.20;;
60038;SDS011;45916;52.734;6.544;2022-11-27T13:26:17;16.30;;;10.90;;
60038;SDS011;45916;52.734;6.544;2022-11-27T13:28:51;15.57;;;10.10;;
60038;SDS011;45916;52.734;6.544;2022-11-27T13:31:20;15.02;;;10.25;;
60038;SDS011;45916;52.734;6.544;2022-11-27T13:33:49;18.55;;;11.70;;
60038;SDS011;45916;52.734;6.544;2022-11-27T13:36:22;15.68;;;10.45;;
60038;SDS011;45916;52.734;6.544;2022-11-27T13:38:53;15.32;;;10.63;;
60038;SDS011;45916;52.734;6.544;2022-11-27T13:41:29;16.90;;;9.73;;
60038;SDS011;45916;52.734;6.544;2022-11-27T13:44:02;17.58;;;11.32;;
60038;SDS011;45916;52.734;6.544;2022-11-27T13:46:39;18.73;;;10.05;;
60038;SDS011;45916;52.734;6.544;2022-11-27T13:49:19;14.88;;;9.98;;
60038;SDS011;45916;52.734;6.544;2022-11-27T13:54:39;17.50;;;10.05;;
60038;SDS011;45916;52.734;6.544;2022-11-27T13:57:16;16.35;;;9.77;;
60038;SDS011;45916;52.734;6.544;2022-11-27T13:59:56;17.50;;;11.10;;
60038;SDS011;45916;52.734;6.544;2022-11-27T14:02:23;15.40;;;10.88;;
60038;SDS011;45916;52.734;6.544;2022-11-27T14:04:50;16.75;;;10.75;;
60038;SDS011;45916;52.734;6.544;2022-11-27T14:07:16;14.70;;;10.60;;
60038;SDS011;45916;52.734;6.544;2022-11-27T14:09:44;13.15;;;10.15;;
60038;SDS011;45916;52.734;6.544;2022-11-27T14:12:29;18.63;;;11.18;;
60038;SDS011;45916;52.734;6.544;2022-11-27T14:17:41;16.73;;;10.65;;
60038;SDS011;45916;52.734;6.544;2022-11-27T14:22:42;15.13;;;11.43;;
60038;SDS011;45916;52.734;6.544;2022-11-27T14:27:47;16.02;;;10.40;;
60038;SDS011;45916;52.734;6.544;2022-11-27T14:30:26;18.38;;;11.23;;
60038;SDS011;45916;52.734;6.544;2022-11-27T14:32:55;15.80;;;11.77;;
60038;SDS011;45916;52.734;6.544;2022-11-27T14:35:22;16.23;;;12.68;;
60038;SDS011;45916;52.734;6.544;2022-11-27T14:40:33;15.85;;;12.02;;
60038;SDS011;45916;52.734;6.544;2022-11-27T14:43:09;17.48;;;12.65;;
60038;SDS011;45916;52.734;6.544;2022-11-27T14:45:43;15.45;;;11.88;;
60038;SDS011;45916;52.734;6.544;2022-11-27T14:48:14;19.00;;;13.60;;
60038;SDS011;45916;52.734;6.544;2022-11-27T14:50:44;15.18;;;12.55;;
60038;SDS011;45916;52.734;6.544;2022-11-27T14:53:10;17.00;;;12.68;;
60038;SDS011;45916;52.734;6.544;2022-11-27T14:55:36;19.05;;;13.18;;
60038;SDS011;45916;52.734;6.544;2022-11-27T14:58:02;18.70;;;12.43;;
60038;SDS011;45916;52.734;6.544;2022-11-27T15:00:29;17.35;;;12.10;;
60038;SDS011;45916;52.734;6.544;2022-11-27T15:03:06;17.60;;;12.13;;
60038;SDS011;45916;52.734;6.544;2022-11-27T15:05:32;17.20;;;13.18;;
60038;SDS011;45916;52.734;6.544;2022-11-27T15:08:02;15.45;;;12.75;;
60038;SDS011;45916;52.734;6.544;2022-11-27T15:10:37;16.95;;;11.40;;
60038;SDS011;45916;52.734;6.544;2022-11-27T15:13:04;17.60;;;11.40;;
60038;SDS011;45916;52.734;6.544;2022-11-27T15:15:40;17.35;;;11.48;;
60038;SDS011;45916;52.734;6.544;2022-11-27T15:18:08;21.15;;;12.77;;
60038;SDS011;45916;52.734;6.544;2022-11-27T15:20:49;15.65;;;11.70;;
60038;SDS011;45916;52.734;6.544;2022-11-27T15:26:06;18.60;;;12.48;;
60038;SDS011;45916;52.734;6.544;2022-11-27T15:28:35;18.50;;;11.80;;
60038;SDS011;45916;52.734;6.544;2022-11-27T15:39:54;16.80;;;11.27;;
60038;SDS011;45916;52.734;6.544;2022-11-27T15:42:21;14.68;;;10.90;;
60038;SDS011;45916;52.734;6.544;2022-11-27T15:44:48;15.77;;;11.75;;
60038;SDS011;45916;52.734;6.544;2022-11-27T15:47:25;15.98;;;11.55;;
60038;SDS011;45916;52.734;6.544;2022-11-27T15:49:57;16.80;;;11.27;;
60038;SDS011;45916;52.734;6.544;2022-11-27T15:52:23;16.15;;;12.00;;
60038;SDS011;45916;52.734;6.544;2022-11-27T15:54:49;16.05;;;12.27;;
60038;SDS011;45916;52.734;6.544;2022-11-27T15:57:15;16.35;;;12.18;;
60038;SDS011;45916;52.734;6.544;2022-11-27T15:59:41;15.32;;;11.68;;
60038;SDS011;45916;52.734;6.544;2022-11-27T16:02:08;16.67;;;12.85;;
60038;SDS011;45916;52.734;6.544;2022-11-27T16:04:35;15.65;;;12.43;;
60038;SDS011;45916;52.734;6.544;2022-11-27T16:07:00;17.88;;;11.48;;
60038;SDS011;45916;52.734;6.544;2022-11-27T16:09:26;18.00;;;12.20;;
60038;SDS011;45916;52.734;6.544;2022-11-27T16:11:52;17.63;;;12.82;;
60038;SDS011;45916;52.734;6.544;2022-11-27T16:14:18;16.95;;;12.35;;
60038;SDS011;45916;52.734;6.544;2022-11-27T16:16:44;15.95;;;12.38;;
60038;SDS011;45916;52.734;6.544;2022-11-27T16:19:09;16.77;;;12.70;;
60038;SDS011;45916;52.734;6.544;2022-11-27T16:21:36;20.10;;;13.25;;
60038;SDS011;45916;52.734;6.544;2022-11-27T16:24:03;19.58;;;13.60;;
60038;SDS011;45916;52.734;6.544;2022-11-27T16:26:30;18.67;;;14.48;;
60038;SDS011;45916;52.734;6.544;2022-11-27T16:28:56;18.13;;;13.68;;
60038;SDS011;45916;52.734;6.544;2022-11-27T16:31:23;16.17;;;13.52;;
60038;SDS011;45916;52.734;6.544;2022-11-27T16:33:49;19.58;;;14.88;;
60038;SDS011;45916;52.734;6.544;2022-11-27T16:36:15;21.63;;;14.15;;
60038;SDS011;45916;52.734;6.544;2022-11-27T16:38:42;18.00;;;13.27;;
60038;SDS011;45916;52.734;6.544;2022-11-27T16:41:13;18.20;;;13.82;;
60038;SDS011;45916;52.734;6.544;2022-11-27T16:43:45;17.00;;;13.35;;
60038;SDS011;45916;52.734;6.544;2022-11-27T16:46:14;19.00;;;14.73;;
60038;SDS011;45916;52.734;6.544;2022-11-27T16:48:41;18.45;;;14.10;;
60038;SDS011;45916;52.734;6.544;2022-11-27T16:51:09;19.73;;;13.65;;
60038;SDS011;45916;52.734;6.544;2022-11-27T16:53:37;17.45;;;13.32;;
60038;SDS011;45916;52.734;6.544;2022-11-27T16:56:05;18.35;;;13.13;;
60038;SDS011;45916;52.734;6.544;2022-11-27T16:58:35;18.63;;;13.30;;
60038;SDS011;45916;52.734;6.544;2022-11-27T17:01:07;16.15;;;14.45;;
60038;SDS011;45916;52.734;6.544;2022-11-27T17:03:35;18.05;;;14.05;;